Wetterdaten: Woche 27.09.04 - 03.10.04 (KW40)
Datum Zeit Temperatur Luftfeuchte Luftdruck Niederschlag Taupunkt Windchill Wind
27.09.2004 00:00 8,3 C 98 % 1024 hPa 0,0 l/m 8,0 C 8,0 C 2,3 km/h (1 Bft)
27.09.2004 01:00 8,1 C 98 % 1024 hPa 0,0 l/m 7,8 C 8,1 C 0,9 km/h (0 Bft)
27.09.2004 02:00 7,9 C 98 % 1024 hPa 0,0 l/m 7,6 C 7,9 C 0,9 km/h (0 Bft)
27.09.2004 03:00 7,7 C 98 % 1024 hPa 0,0 l/m 7,4 C 7,5 C 2,1 km/h (1 Bft)
27.09.2004 04:00 7,3 C 98 % 1024 hPa 0,0 l/m 7,0 C 6,2 C 8,0 km/h (2 Bft)
27.09.2004 05:00 7,1 C 98 % 1024 hPa 0,0 l/m 6,8 C 6,7 C 4,3 km/h (1 Bft)
27.09.2004 06:00 7,1 C 98 % 1024 hPa 0,0 l/m 6,8 C 7,0 C 2,8 km/h (1 Bft)
27.09.2004 07:00 7,3 C 98 % 1024 hPa 0,0 l/m 7,0 C 7,2 C 1,5 km/h (1 Bft)
27.09.2004 08:00 7,9 C 98 % 1024 hPa 1,0 l/m 7,6 C 7,1 C 4,4 km/h (1 Bft)
27.09.2004 09:00 8,7 C 98 % 1024 hPa 0,0 l/m 8,4 C 8,6 C 1,3 km/h (1 Bft)
27.09.2004 10:00 9,9 C 91 % 1024 hPa 0,0 l/m 8,5 C 8,4 C 7,2 km/h (2 Bft)
27.09.2004 11:00 11,0 C 83 % 1024 hPa 0,0 l/m 8,3 C 8,0 C 12,1 km/h (2 Bft)
27.09.2004 12:00 11,6 C 83 % 1024 hPa 0,0 l/m 8,9 C 7,8 C 15,6 km/h (3 Bft)
27.09.2004 13:00 12,7 C 77 % 1024 hPa 0,0 l/m 8,9 C 8,6 C 16,8 km/h (3 Bft)
27.09.2004 14:00 13,9 C 70 % 1023 hPa 0,0 l/m 8,6 C 10,3 C 16,0 km/h (3 Bft)
27.09.2004 15:00 13,4 C 69 % 1023 hPa 0,0 l/m 7,9 C 11,5 C 12,0 km/h (2 Bft)
27.09.2004 16:00 12,5 C 74 % 1023 hPa 0,0 l/m 8,1 C 11,6 C 7,7 km/h (2 Bft)
27.09.2004 17:00 12,2 C 79 % 1023 hPa 0,0 l/m 8,6 C 12,0 C 2,0 km/h (1 Bft)
27.09.2004 18:00 11,9 C 80 % 1023 hPa 0,0 l/m 8,6 C 11,9 C 0,1 km/h (0 Bft)
27.09.2004 19:00 11,3 C 85 % 1022 hPa 0,0 l/m 8,8 C 11,2 C 1,1 km/h (0 Bft)
27.09.2004 20:00 10,8 C 87 % 1023 hPa 0,0 l/m 8,8 C 9,4 C 9,6 km/h (2 Bft)
27.09.2004 21:00 10,7 C 86 % 1023 hPa 0,0 l/m 8,5 C 10,0 C 7,2 km/h (2 Bft)
27.09.2004 22:00 10,6 C 89 % 1023 hPa 0,0 l/m 8,9 C 9,6 C 8,3 km/h (2 Bft)
27.09.2004 23:00 10,2 C 96 % 1023 hPa 0,0 l/m 9,5 C 9,6 C 6,1 km/h (2 Bft)
28.09.2004 00:00 10,4 C 97 % 1023 hPa 0,0 l/m 9,9 C 9,8 C 6,9 km/h (2 Bft)
28.09.2004 01:00 10,6 C 98 % 1023 hPa 0,0 l/m 10,2 C 8,7 C 10,6 km/h (2 Bft)
28.09.2004 02:00 10,6 C 98 % 1023 hPa 0,0 l/m 10,3 C 10,0 C 6,3 km/h (2 Bft)
28.09.2004 03:00 10,5 C 98 % 1023 hPa 0,0 l/m 10,2 C 9,4 C 8,8 km/h (2 Bft)
28.09.2004 04:00 10,6 C 98 % 1022 hPa 0,0 l/m 10,3 C 10,3 C 2,5 km/h (1 Bft)
28.09.2004 05:00 10,4 C 98 % 1022 hPa 0,0 l/m 10,1 C 9,7 C 5,3 km/h (1 Bft)
28.09.2004 06:00 10,2 C 98 % 1022 hPa 0,0 l/m 9,9 C 9,7 C 6,4 km/h (2 Bft)
28.09.2004 07:00 10,3 C 98 % 1022 hPa 0,0 l/m 10,0 C 9,7 C 4,1 km/h (1 Bft)
28.09.2004 08:00 10,7 C 98 % 1022 hPa 0,0 l/m 10,4 C 10,7 C 0,1 km/h (0 Bft)
28.09.2004 09:00 11,4 C 98 % 1022 hPa 0,0 l/m 11,1 C 11,1 C 2,0 km/h (1 Bft)
28.09.2004 10:00 12,2 C 96 % 1022 hPa 0,0 l/m 11,6 C 12,0 C 1,0 km/h (0 Bft)
28.09.2004 11:00 13,1 C 92 % 1022 hPa 0,0 l/m 11,8 C 13,1 C 0,2 km/h (0 Bft)
28.09.2004 12:00 13,9 C 88 % 1022 hPa 0,0 l/m 12,0 C 13,7 C 1,0 km/h (0 Bft)
28.09.2004 13:00 14,5 C 84 % 1022 hPa 0,0 l/m 11,8 C 14,5 C 0,0 km/h (0 Bft)
28.09.2004 14:00 14,9 C 82 % 1022 hPa 0,0 l/m 11,8 C 14,9 C 0,0 km/h (0 Bft)
28.09.2004 15:00 14,8 C 82 % 1022 hPa 0,0 l/m 11,8 C 14,8 C 0,1 km/h (0 Bft)
28.09.2004 16:00 15,5 C 79 % 1022 hPa 0,0 l/m 11,8 C 15,3 C 3,0 km/h (1 Bft)
28.09.2004 17:00 14,8 C 82 % 1022 hPa 0,0 l/m 11,8 C 14,8 C 0,4 km/h (0 Bft)
28.09.2004 18:00 14,2 C 84 % 1022 hPa 0,0 l/m 11,5 C 13,4 C 6,4 km/h (2 Bft)
28.09.2004 19:00 13,5 C 89 % 1022 hPa 0,0 l/m 11,6 C 12,6 C 5,8 km/h (2 Bft)
28.09.2004 20:00 13,0 C 91 % 1020 hPa 0,0 l/m 11,5 C 13,0 C 0,5 km/h (0 Bft)
28.09.2004 21:00 12,4 C 93 % 1020 hPa 0,0 l/m 11,3 C 12,4 C 0,0 km/h (0 Bft)
28.09.2004 22:00 12,1 C 94 % 1020 hPa 0,0 l/m 11,2 C 12,1 C 0,0 km/h (0 Bft)
28.09.2004 23:00 11,7 C 96 % 1020 hPa 0,0 l/m 11,0 C 11,7 C 0,0 km/h (0 Bft)
29.09.2004 00:00 10,7 C 96 % 1019 hPa 0,0 l/m 10,1 C 10,7 C 0,0 km/h (0 Bft)
29.09.2004 01:00 10,3 C 97 % 1019 hPa 0,0 l/m 9,9 C 10,3 C 0,0 km/h (0 Bft)
29.09.2004 02:00 9,8 C 98 % 1019 hPa 0,0 l/m 9,5 C 9,8 C 0,0 km/h (0 Bft)
29.09.2004 03:00 10,3 C 98 % 1018 hPa 0,0 l/m 10,0 C 9,7 C 5,3 km/h (1 Bft)
29.09.2004 04:00 11,0 C 98 % 1018 hPa 0,0 l/m 10,7 C 10,2 C 7,6 km/h (2 Bft)
29.09.2004 05:00 10,7 C 98 % 1018 hPa 0,0 l/m 10,4 C 9,4 C 8,3 km/h (2 Bft)
29.09.2004 06:00 11,1 C 98 % 1018 hPa 0,0 l/m 10,8 C 10,1 C 7,2 km/h (2 Bft)
29.09.2004 07:00 11,0 C 98 % 1018 hPa 0,0 l/m 10,7 C 8,7 C 9,9 km/h (2 Bft)
29.09.2004 08:00 11,4 C 98 % 1018 hPa 0,0 l/m 11,1 C 9,8 C 6,6 km/h (2 Bft)
29.09.2004 09:00 12,6 C 97 % 1018 hPa 0,0 l/m 12,0 C 11,6 C 3,7 km/h (1 Bft)
29.09.2004 10:00 13,4 C 84 % 1018 hPa 0,0 l/m 10,7 C 10,0 C 13,8 km/h (3 Bft)
29.09.2004 11:00 14,0 C 81 % 1018 hPa 0,0 l/m 10,9 C 13,2 C 3,3 km/h (1 Bft)
29.09.2004 12:00 14,6 C 80 % 1018 hPa 0,0 l/m 11,1 C 14,2 C 1,5 km/h (1 Bft)
29.09.2004 13:00 15,0 C 78 % 1018 hPa 0,0 l/m 11,2 C 14,0 C 5,0 km/h (1 Bft)
29.09.2004 14:00 15,3 C 76 % 1018 hPa 0,0 l/m 11,1 C 14,5 C 3,9 km/h (1 Bft)
29.09.2004 15:00 15,7 C 76 % 1018 hPa 0,0 l/m 11,5 C 14,8 C 5,7 km/h (1 Bft)
29.09.2004 16:00 15,2 C 80 % 1018 hPa 1,0 l/m 11,9 C 15,1 C 1,1 km/h (0 Bft)
29.09.2004 17:00 13,9 C 92 % 1018 hPa 3,0 l/m 12,6 C 13,3 C 6,0 km/h (2 Bft)
29.09.2004 18:00 13,6 C 95 % 1018 hPa 0,0 l/m 12,8 C 12,6 C 8,3 km/h (2 Bft)
29.09.2004 19:00 13,2 C 96 % 1019 hPa 0,0 l/m 12,6 C 11,7 C 10,4 km/h (2 Bft)
29.09.2004 20:00 12,8 C 96 % 1019 hPa 0,0 l/m 12,1 C 12,5 C 4,6 km/h (1 Bft)
29.09.2004 21:00 12,5 C 97 % 1020 hPa 0,0 l/m 12,0 C 12,2 C 5,2 km/h (1 Bft)
29.09.2004 22:00 12,3 C 97 % 1020 hPa 0,0 l/m 11,8 C 12,0 C 4,3 km/h (1 Bft)
29.09.2004 23:00 12,1 C 97 % 1020 hPa 0,0 l/m 11,6 C 12,1 C 0,6 km/h (0 Bft)
30.09.2004 00:00 11,9 C 98 % 1020 hPa 0,0 l/m 11,6 C 11,8 C 0,9 km/h (0 Bft)
30.09.2004 01:00 11,7 C 98 % 1020 hPa 0,0 l/m 11,4 C 11,7 C 1,3 km/h (1 Bft)
30.09.2004 02:00 11,5 C 98 % 1020 hPa 0,0 l/m 11,2 C 11,2 C 2,5 km/h (1 Bft)
30.09.2004 03:00 11,2 C 98 % 1020 hPa 0,0 l/m 10,9 C 11,2 C 0,0 km/h (0 Bft)
30.09.2004 04:00 11,1 C 98 % 1020 hPa 0,0 l/m 10,8 C 11,0 C 1,5 km/h (1 Bft)
30.09.2004 05:00 11,2 C 98 % 1020 hPa 0,0 l/m 10,9 C 11,2 C 0,0 km/h (0 Bft)
30.09.2004 06:00 11,0 C 98 % 1020 hPa 0,0 l/m 10,7 C 11,0 C 0,0 km/h (0 Bft)
30.09.2004 07:00 10,9 C 98 % 1020 hPa 0,0 l/m 10,6 C 10,9 C 0,0 km/h (0 Bft)
30.09.2004 08:00 11,2 C 98 % 1021 hPa 0,0 l/m 10,9 C 11,2 C 0,0 km/h (0 Bft)
30.09.2004 09:00 12,0 C 98 % 1021 hPa 0,0 l/m 11,7 C 12,0 C 0,0 km/h (0 Bft)
30.09.2004 10:00 14,0 C 91 % 1021 hPa 0,0 l/m 12,5 C 13,9 C 0,4 km/h (0 Bft)
30.09.2004 11:00 15,1 C 74 % 1021 hPa 0,0 l/m 10,5 C 15,1 C 0,0 km/h (0 Bft)
30.09.2004 12:00 15,2 C 75 % 1022 hPa 0,0 l/m 10,7 C 15,2 C 0,7 km/h (0 Bft)
30.09.2004 13:00 15,7 C 73 % 1021 hPa 0,0 l/m 10,9 C 15,4 C 2,6 km/h (1 Bft)
30.09.2004 14:00 16,2 C 73 % 1021 hPa 0,0 l/m 11,4 C 15,6 C 3,1 km/h (1 Bft)
30.09.2004 15:00 16,9 C 68 % 1021 hPa 0,0 l/m 10,9 C 15,8 C 9,8 km/h (2 Bft)
30.09.2004 16:00 16,9 C 68 % 1021 hPa 0,0 l/m 10,8 C 16,7 C 1,2 km/h (1 Bft)
30.09.2004 17:00 16,4 C 73 % 1021 hPa 0,0 l/m 11,6 C 16,2 C 1,6 km/h (1 Bft)
30.09.2004 18:00 15,5 C 84 % 1021 hPa 0,0 l/m 12,8 C 15,4 C 4,1 km/h (1 Bft)
30.09.2004 19:00 14,8 C 88 % 1021 hPa 0,0 l/m 12,9 C 14,8 C 0,7 km/h (0 Bft)
30.09.2004 20:00 14,2 C 90 % 1021 hPa 1,0 l/m 12,6 C 14,2 C 0,0 km/h (0 Bft)
30.09.2004 21:00 13,7 C 93 % 1021 hPa 0,0 l/m 12,7 C 13,7 C 0,0 km/h (0 Bft)
30.09.2004 22:00 13,4 C 95 % 1022 hPa 0,0 l/m 12,6 C 13,4 C 0,0 km/h (0 Bft)
30.09.2004 23:00 13,3 C 97 % 1022 hPa 1,0 l/m 12,8 C 13,3 C 0,0 km/h (0 Bft)
01.10.2004 00:00 13,1 C 98 % 1021 hPa 0,0 l/m 12,7 C 13,1 C 0,0 km/h (0 Bft)
01.10.2004 01:00 12,9 C 98 % 1021 hPa 0,0 l/m 12,5 C 12,9 C 0,4 km/h (0 Bft)
01.10.2004 02:00 12,6 C 98 % 1021 hPa 0,0 l/m 12,3 C 12,5 C 0,6 km/h (0 Bft)
01.10.2004 03:00 12,2 C 98 % 1021 hPa 0,0 l/m 11,9 C 12,2 C 0,5 km/h (0 Bft)
01.10.2004 04:00 11,7 C 98 % 1021 hPa 0,0 l/m 11,4 C 11,7 C 1,5 km/h (1 Bft)
01.10.2004 05:00 11,2 C 98 % 1020 hPa 0,0 l/m 10,9 C 11,2 C 0,3 km/h (0 Bft)
01.10.2004 06:00 10,9 C 98 % 1020 hPa 0,0 l/m 10,6 C 10,9 C 0,0 km/h (0 Bft)
01.10.2004 07:00 10,9 C 98 % 1021 hPa 0,0 l/m 10,6 C 10,9 C 0,6 km/h (0 Bft)
01.10.2004 08:00 11,1 C 98 % 1021 hPa 0,0 l/m 10,8 C 11,1 C 0,0 km/h (0 Bft)
01.10.2004 09:00 11,9 C 98 % 1021 hPa 0,0 l/m 11,6 C 11,6 C 2,8 km/h (1 Bft)
01.10.2004 10:00 13,4 C 98 % 1022 hPa 1,0 l/m 13,1 C 10,5 C 13,9 km/h (3 Bft)
01.10.2004 11:00 15,4 C 94 % 1022 hPa 0,0 l/m 14,4 C 13,7 C 10,7 km/h (2 Bft)
01.10.2004 12:00 17,0 C 79 % 1022 hPa 0,0 l/m 13,3 C 14,6 C 13,3 km/h (3 Bft)
01.10.2004 13:00 18,0 C 69 % 1021 hPa 0,0 l/m 12,3 C 15,3 C 16,0 km/h (3 Bft)
01.10.2004 14:00 18,9 C 62 % 1021 hPa 0,0 l/m 11,4 C 17,0 C 11,6 km/h (2 Bft)
01.10.2004 15:00 14,8 C 79 % 1021 hPa 2,0 l/m 11,1 C 11,7 C 14,9 km/h (3 Bft)
01.10.2004 16:00 14,6 C 83 % 1020 hPa 0,0 l/m 11,8 C 13,6 C 8,4 km/h (2 Bft)
01.10.2004 17:00 15,6 C 80 % 1020 hPa 0,0 l/m 12,1 C 15,0 C 7,0 km/h (2 Bft)
01.10.2004 18:00 14,8 C 83 % 1021 hPa 0,0 l/m 11,9 C 14,6 C 3,4 km/h (1 Bft)
01.10.2004 19:00 13,1 C 88 % 1021 hPa 0,0 l/m 11,2 C 13,1 C 0,6 km/h (0 Bft)
01.10.2004 20:00 11,7 C 91 % 1021 hPa 0,0 l/m 10,3 C 11,7 C 0,0 km/h (0 Bft)
01.10.2004 21:00 10,7 C 94 % 1022 hPa 0,0 l/m 9,7 C 10,7 C 0,0 km/h (0 Bft)
01.10.2004 22:00 10,0 C 95 % 1022 hPa 0,0 l/m 9,3 C 10,0 C 0,0 km/h (0 Bft)
01.10.2004 23:00 9,3 C 96 % 1022 hPa 0,0 l/m 8,7 C 9,3 C 0,0 km/h (0 Bft)
02.10.2004 00:00 8,6 C 97 % 1022 hPa 0,0 l/m 8,1 C 8,6 C 0,0 km/h (0 Bft)
02.10.2004 01:00 8,5 C 97 % 1021 hPa 0,0 l/m 8,1 C 8,5 C 0,0 km/h (0 Bft)
02.10.2004 02:00 8,3 C 98 % 1021 hPa 0,0 l/m 8,0 C 8,3 C 0,0 km/h (0 Bft)
02.10.2004 03:00 8,4 C 98 % 1021 hPa 0,0 l/m 8,1 C 8,4 C 0,0 km/h (0 Bft)
02.10.2004 04:00 8,3 C 98 % 1021 hPa 0,0 l/m 8,0 C 8,3 C 0,0 km/h (0 Bft)
02.10.2004 05:00 8,4 C 98 % 1022 hPa 0,0 l/m 8,1 C 8,4 C 0,0 km/h (0 Bft)
02.10.2004 06:00 8,6 C 98 % 1022 hPa 0,0 l/m 8,3 C 8,6 C 0,0 km/h (0 Bft)
02.10.2004 07:00 10,0 C 98 % 1022 hPa 0,0 l/m 9,7 C 8,9 C 5,0 km/h (1 Bft)
02.10.2004 08:00 11,1 C 98 % 1022 hPa 0,0 l/m 10,8 C 11,0 C 0,5 km/h (0 Bft)
02.10.2004 09:00 12,0 C 98 % 1023 hPa 0,0 l/m 11,7 C 12,0 C 0,3 km/h (0 Bft)
02.10.2004 10:00 13,8 C 97 % 1023 hPa 0,0 l/m 13,4 C 13,1 C 4,6 km/h (1 Bft)
02.10.2004 11:00 15,3 C 80 % 1023 hPa 0,0 l/m 11,8 C 14,5 C 5,8 km/h (2 Bft)
02.10.2004 12:00 16,5 C 70 % 1023 hPa 0,0 l/m 11,0 C 15,9 C 4,7 km/h (1 Bft)
02.10.2004 13:00 16,9 C 66 % 1023 hPa 0,0 l/m 10,5 C 16,4 C 2,7 km/h (1 Bft)
02.10.2004 14:00 17,3 C 64 % 1022 hPa 0,0 l/m 10,6 C 15,7 C 11,1 km/h (2 Bft)
02.10.2004 15:00 17,8 C 61 % 1022 hPa 0,0 l/m 10,3 C 15,8 C 13,1 km/h (3 Bft)
02.10.2004 16:00 17,1 C 63 % 1022 hPa 0,0 l/m 10,0 C 16,0 C 8,6 km/h (2 Bft)
02.10.2004 17:00 16,6 C 70 % 1022 hPa 0,0 l/m 11,1 C 16,4 C 4,3 km/h (1 Bft)
02.10.2004 18:00 15,6 C 74 % 1022 hPa 0,0 l/m 11,0 C 15,6 C 0,8 km/h (0 Bft)
02.10.2004 19:00 13,9 C 82 % 1023 hPa 0,0 l/m 10,8 C 13,9 C 1,1 km/h (1 Bft)
02.10.2004 20:00 12,9 C 87 % 1023 hPa 0,0 l/m 10,8 C 12,8 C 4,0 km/h (1 Bft)
02.10.2004 21:00 11,9 C 90 % 1023 hPa 0,0 l/m 10,2 C 11,9 C 0,6 km/h (0 Bft)
02.10.2004 22:00 11,1 C 92 % 1023 hPa 0,0 l/m 9,9 C 11,1 C 0,0 km/h (0 Bft)
02.10.2004 23:00 10,7 C 94 % 1023 hPa 0,0 l/m 9,8 C 10,7 C 0,0 km/h (0 Bft)
03.10.2004 00:00 10,5 C 95 % 1024 hPa 0,0 l/m 9,9 C 10,5 C 1,0 km/h (0 Bft)
03.10.2004 01:00 10,6 C 96 % 1024 hPa 0,0 l/m 10,1 C 10,6 C 0,0 km/h (0 Bft)
03.10.2004 02:00 9,9 C 97 % 1024 hPa 0,0 l/m 9,4 C 9,9 C 0,0 km/h (0 Bft)
03.10.2004 03:00 9,1 C 97 % 1024 hPa 0,0 l/m 8,6 C 9,1 C 0,0 km/h (0 Bft)
03.10.2004 04:00 8,3 C 97 % 1024 hPa 0,0 l/m 7,9 C 8,3 C 0,0 km/h (0 Bft)
03.10.2004 05:00 7,5 C 98 % 1024 hPa 0,0 l/m 7,2 C 7,5 C 0,0 km/h (0 Bft)
03.10.2004 06:00 6,8 C 98 % 1024 hPa 0,0 l/m 6,5 C 6,8 C 0,0 km/h (0 Bft)
03.10.2004 07:00 6,2 C 98 % 1025 hPa 0,0 l/m 5,9 C 6,2 C 0,0 km/h (0 Bft)
03.10.2004 08:00 6,7 C 98 % 1025 hPa 0,0 l/m 6,4 C 6,7 C 0,0 km/h (0 Bft)
03.10.2004 09:00 8,7 C 98 % 1025 hPa 0,0 l/m 8,4 C 8,7 C 0,0 km/h (0 Bft)
03.10.2004 10:00 13,1 C 94 % 1025 hPa 0,0 l/m 12,0 C 13,0 C 1,5 km/h (1 Bft)
03.10.2004 11:00 16,9 C 67 % 1025 hPa 0,0 l/m 10,6 C 16,1 C 8,2 km/h (2 Bft)
03.10.2004 12:00 17,6 C 57 % 1025 hPa 0,0 l/m 8,9 C 16,7 C 8,5 km/h (2 Bft)
03.10.2004 13:00 19,1 C 52 % 1024 hPa 0,0 l/m 8,8 C 17,8 C 10,6 km/h (2 Bft)
03.10.2004 14:00 19,3 C 48 % 1024 hPa 0,0 l/m 8,2 C 19,0 C 5,2 km/h (1 Bft)
03.10.2004 15:00 19,2 C 48 % 1024 hPa 0,0 l/m 7,9 C 18,9 C 6,2 km/h (2 Bft)
03.10.2004 16:00 18,6 C 48 % 1023 hPa 0,0 l/m 7,5 C 18,2 C 5,5 km/h (1 Bft)
03.10.2004 17:00 17,9 C 51 % 1023 hPa 0,0 l/m 7,6 C 17,7 C 3,4 km/h (1 Bft)
03.10.2004 18:00 15,6 C 66 % 1023 hPa 0,0 l/m 9,2 C 15,6 C 0,0 km/h (0 Bft)
03.10.2004 19:00 13,0 C 74 % 1023 hPa 0,0 l/m 8,6 C 13,0 C 0,0 km/h (0 Bft)
03.10.2004 20:00 11,4 C 82 % 1023 hPa 0,0 l/m 8,3 C 11,4 C 0,0 km/h (0 Bft)
03.10.2004 21:00 10,4 C 86 % 1023 hPa 0,0 l/m 8,2 C 10,4 C 0,0 km/h (0 Bft)
03.10.2004 22:00 9,9 C 90 % 1023 hPa 0,0 l/m 8,4 C 9,9 C 0,7 km/h (0 Bft)
03.10.2004 23:00 9,4 C 91 % 1022 hPa 0,0 l/m 8,0 C 9,4 C 0,0 km/h (0 Bft)
Min-Datum _ 03.10.04 03.10.04 29.09.04 - 03.10.04 27.09.04 27.09.04
_ Min-Zeit 07:08 15:22 16:11 - 07:08 04:14 00:01
Minimum _ 6,1 C 44 % 1017 hPa - 5,8 C 2,9 C 0,0 km/h (0 Bft)
Max-Datum _ 03.10.04 27.09.04 03.10.04 29.09.04 01.10.04 03.10.04 29.09.04
_ Max-Zeit 15:21 00:01 07:26 17:37 11:18 15:21 10:21
Maximum _ 20,1 C 98 % 1025 hPa 3,0 l/m 14,9 C 20,1 C 34,8 km/h
S-SW (5 Bft)
Durchschnitt _ 12,3 C 88 % 1022 hPa #10,0 l/m 10,3 C 11,8 C 3,6 km/h (1 Bft)

Durchschnitt Minimum Temp.11,8 C
Durchschnitt Maximum Temp.12,9 C